Hauptseite
METAR-TAF:

METAR-TAF

Flughäfen :

Baden-Baden, Deutschland

Flughafen Karlsruhe/Baden-Baden

Breite: 48-46-43N, Länge: 008-04-47E, Höhe: 124 m

Beobachtung

Neuester Wetterbericht von vor 16 Minuten, um 00:20 UTC
Wind 14 kt aus Nord/Nordost
Temperatur -1°C
Luftfeuchtigkeit 64%
Luftdruck 1016 hPa
Sichtweite 10 km oder mehr

METAR: EDSB 240020Z AUTO 03014KT 9999 BKN038/// M01/M07 Q1016

Zeit: 01:36 (00:36 UTC)

Prognose

Neuester Wetterbericht von vor 7 Stunden und 36 Minuten, um 17:00 UTC
Gültige Prognose vom 23 um 18 UTC bis 24 um 18 UTC
Wind 13 kt aus Nord/Nordost
Sichtweite 10 km oder mehr
Durchbrochene Bewölkung in der Höhe von 4000 ft
Übergehend zu
vom 24 um 05 UTC bis 24 um 08 UTC
Wind 15 kt aus Nordost, Böen bis zu 25 kt

TAF: EDSB 231700Z 2318/2418 03013KT 9999 BKN040 BECMG 2405/2408 04015G25KT

Wetterbeobachtungen und Prognosen von mehr als 4000 Flughäfen (METAR und TAF Bericht).

Die verfügbaren Stationen werden durch gelbe und rote Markierungen auf der Karte dargestellt.

Führen Sie die Maus auf sie, um den Namen der Station zu sehen.

Darauf klicken, um die Beobachtung von Wetterbeobachtungen und Prognosen zu sehen.

Um die Karte zu ändern : klicken Sie auf den grünen Tasten mit einem schwarzen Kreuz Zum Vergrößern, auf den grünen Button mit einem Gedankenstrich zu verkleinern, oder auf die grünen Pfeile für benachbarte Karten.


METAR-TAF: